METAR Data
IDs: Format: Raw Decoded Include TAF

Data at: 0815 UTC 01 Aug 2021

EDDR 010750Z 27006KT 230V300 9999 FEW015 16/13 Q1011 NOSIG